KSNA/SNA METAR and TAF weather

Enter ICAO airport designator
Station Type Date Time Source
KSNA METAR 2018/12/13 21:53 UTC NOAA

KSNA 132153Z VRB03KT 10SM CLR 24/02 A3014 RMK AO2 SLP206 T02390022


Station Type Date Time Source
KSNA Decoded METAR 2018/12/13 21:53 UTC NOAA

SANTA ANA WAYNE ORANGE CTY, CA, United States (KSNA) 33-41N 117-52W 15M
Dec 13, 2018 - 04:53 PM EST / 2018.12.13 2153 UTC
Wind: Variable at 3 MPH (3 KT):0
Visibility: 10 mile(s):0
Sky conditions: clear
Temperature: 75.0 F (23.9 C)
Dew Point: 36.0 F (2.2 C)
Relative Humidity: 24%
Pressure (altimeter): 30.14 in. Hg (1020 hPa)
ob: KSNA 132153Z VRB03KT 10SM CLR 24/02 A3014 RMK AO2 SLP206 T02390022
cycle: 22

Station Type Date Time Source
KSNA TAF 2018/12/13 18:34 UTC NOAA

TAF KSNA 131732Z 1318/1418 VRB04KT P6SM SKC
FM132100 21007KT P6SM SKC
FM140100 VRB04KT P6SM SCT250


Example: see airport list